createdAt,value
2022-12-26T00:01:05.531Z,96049.50
2022-12-26T00:02:10.084Z,96047.75
2022-12-26T00:03:12.158Z,96046.97
2022-12-26T00:04:50.959Z,96046.56
2022-12-26T00:05:40.253Z,96044.00
2022-12-26T00:06:44.963Z,96037.16
2022-12-26T00:07:47.042Z,96042.31
2022-12-26T00:08:52.196Z,96050.97
2022-12-26T00:09:54.213Z,96046.88
2022-12-26T00:10:59.668Z,96055.63
2022-12-26T00:12:01.729Z,96040.25
2022-12-26T00:13:40.150Z,96045.00
2022-12-26T00:14:33.537Z,96047.66
2022-12-26T00:15:35.829Z,96049.81
2022-12-26T00:16:40.664Z,96055.09
2022-12-26T00:17:42.675Z,96061.22
2022-12-26T00:18:48.351Z,96056.34
2022-12-26T00:19:52.991Z,96063.47
2022-12-26T00:20:55.014Z,96055.75
2022-12-26T00:21:59.573Z,96058.16
2022-12-26T00:23:01.641Z,96053.81
2022-12-26T00:24:07.008Z,96052.84
2022-12-26T00:25:09.346Z,96054.50
2022-12-26T00:26:16.712Z,96057.38
2022-12-26T00:27:18.734Z,96055.75
2022-12-26T00:28:25.878Z,96058.28
2022-12-26T00:29:28.129Z,96054.78
2022-12-26T00:30:32.714Z,96053.13
2022-12-26T00:31:35.316Z,96053.13
2022-12-26T00:32:40.336Z,96055.47
2022-12-26T00:33:42.490Z,96057.72
2022-12-26T00:34:47.051Z,96062.91
2022-12-26T00:35:49.096Z,96069.78
2022-12-26T00:36:53.711Z,96058.34
2022-12-26T00:37:55.741Z,96059.81
2022-12-26T00:39:01.887Z,96069.00
2022-12-26T00:40:05.327Z,96064.66
2022-12-26T00:41:11.053Z,96063.88
2022-12-26T00:42:13.021Z,96069.34
2022-12-26T00:43:17.553Z,96063.38
2022-12-26T00:44:24.857Z,96065.81
2022-12-26T00:45:26.910Z,96064.66
2022-12-26T00:46:31.781Z,96069.97
2022-12-26T00:47:33.969Z,96073.38
2022-12-26T00:48:38.549Z,96070.84
2022-12-26T00:50:12.926Z,96070.72
2022-12-26T00:51:06.397Z,96066.47
2022-12-26T00:52:08.410Z,96073.59
2022-12-26T00:53:12.989Z,96073.53
2022-12-26T00:54:14.942Z,96072.97
2022-12-26T00:55:19.559Z,96065.19
2022-12-26T00:56:21.606Z,96071.84
2022-12-26T00:57:26.161Z,96075.34
2022-12-26T00:58:28.176Z,96071.00
2022-12-26T00:59:35.344Z,96073.38
2022-12-26T01:00:37.850Z,96066.91
2022-12-26T01:01:42.727Z,96066.25
2022-12-26T01:02:45.080Z,96064.72
2022-12-26T01:03:50.823Z,96076.41
2022-12-26T01:04:52.814Z,96071.41
2022-12-26T01:05:57.365Z,96066.44
2022-12-26T01:06:59.337Z,96065.69
2022-12-26T01:08:20.422Z,96070.03
2022-12-26T01:09:28.453Z,96060.91
2022-12-26T01:10:30.458Z,96064.00
2022-12-26T01:11:44.318Z,96060.06
2022-12-26T01:12:46.365Z,96054.13
2022-12-26T01:13:51.043Z,96058.78
2022-12-26T01:14:55.689Z,96063.13
2022-12-26T01:16:00.312Z,96062.41
2022-12-26T01:17:02.371Z,96068.66
2022-12-26T01:18:07.782Z,96069.75
2022-12-26T01:19:11.012Z,96071.59
2022-12-26T01:20:15.664Z,96063.91
2022-12-26T01:21:17.605Z,96077.13
2022-12-26T01:22:22.763Z,96073.66
2022-12-26T01:23:24.789Z,96079.66
2022-12-26T01:24:29.346Z,96073.00
2022-12-26T01:25:31.383Z,96068.63
2022-12-26T01:26:35.983Z,96070.47
2022-12-26T01:27:38.094Z,96069.59
2022-12-26T01:28:42.627Z,96066.19
2022-12-26T01:29:45.139Z,96062.84
2022-12-26T01:30:52.393Z,96054.47
2022-12-26T01:31:54.441Z,96064.69
2022-12-26T01:32:59.172Z,96056.78
2022-12-26T01:34:01.120Z,96056.97
2022-12-26T01:35:05.800Z,96063.53
2022-12-26T01:36:08.357Z,96060.19
2022-12-26T01:37:15.603Z,96064.13
2022-12-26T01:38:17.663Z,96061.75
2022-12-26T01:39:22.221Z,96067.69
2022-12-26T01:40:24.355Z,96063.28
2022-12-26T01:41:30.445Z,96071.94
2022-12-26T01:42:37.977Z,96069.88
2022-12-26T01:43:59.657Z,96069.72
2022-12-26T01:45:07.019Z,96076.31
2022-12-26T01:46:14.275Z,96071.00
2022-12-26T01:47:16.972Z,96063.81
2022-12-26T01:48:26.097Z,96065.28
2022-12-26T01:49:35.569Z,96063.75
2022-12-26T01:50:47.747Z,96065.69
2022-12-26T01:51:54.710Z,96067.78
2022-12-26T01:53:02.489Z,96071.53
2022-12-26T01:54:40.858Z,96070.19
2022-12-26T01:55:35.747Z,96081.59
2022-12-26T01:56:40.930Z,96068.84
2022-12-26T01:57:48.284Z,96071.53
2022-12-26T01:58:56.076Z,96067.31
2022-12-26T02:00:04.133Z,96069.13
2022-12-26T02:01:08.341Z,96074.28
2022-12-26T02:02:16.408Z,96076.94
2022-12-26T02:03:33.753Z,96076.22
2022-12-26T02:04:55.218Z,96074.56
2022-12-26T02:06:00.942Z,96071.34
2022-12-26T02:07:07.144Z,96074.09
2022-12-26T02:08:13.506Z,96080.03
2022-12-26T02:09:18.955Z,96083.19
2022-12-26T02:10:24.249Z,96085.25
2022-12-26T02:11:34.440Z,96079.88
2022-12-26T02:12:39.217Z,96084.06
2022-12-26T02:13:44.443Z,96081.97
2022-12-26T02:14:47.743Z,96074.81
2022-12-26T02:15:52.527Z,96075.31
2022-12-26T02:16:56.058Z,96081.88
2022-12-26T02:18:03.414Z,96076.69
2022-12-26T02:19:12.688Z,96070.56
2022-12-26T02:20:23.205Z,96070.50
2022-12-26T02:21:48.509Z,96071.91
2022-12-26T02:23:36.386Z,96067.69
2022-12-26T02:25:10.721Z,96070.28
2022-12-26T02:26:42.782Z,96075.59
2022-12-26T02:28:08.111Z,96074.47
2022-12-26T02:29:39.531Z,96068.91
2022-12-26T02:30:51.247Z,96064.91
2022-12-26T02:31:56.913Z,96060.72
2022-12-26T02:33:18.586Z,96063.16
2022-12-26T02:34:26.606Z,96057.16
2022-12-26T02:35:45.427Z,96056.19
2022-12-26T02:37:02.259Z,96063.94
2022-12-26T02:38:20.728Z,96055.50
2022-12-26T02:39:44.329Z,96058.13
2022-12-26T02:40:59.220Z,96053.94
2022-12-26T02:42:11.649Z,96053.94
2022-12-26T02:43:23.980Z,96052.00
2022-12-26T02:44:48.932Z,96046.41
2022-12-26T02:46:20.105Z,96049.91
2022-12-26T02:47:31.892Z,96058.78
2022-12-26T02:48:46.779Z,96053.25
2022-12-26T02:50:19.524Z,96067.03
2022-12-26T02:51:51.483Z,96059.13
2022-12-26T02:53:20.043Z,96066.41
2022-12-26T02:54:46.504Z,96065.53
2022-12-26T02:56:08.393Z,96069.88
2022-12-26T02:57:28.693Z,96078.91
2022-12-26T02:58:51.782Z,96070.66
2022-12-26T03:00:15.626Z,96066.84
2022-12-26T03:01:42.325Z,96071.13
2022-12-26T03:03:07.455Z,96072.78
2022-12-26T03:04:29.703Z,96076.41
2022-12-26T03:05:50.505Z,96074.47
2022-12-26T03:07:12.532Z,96074.31
2022-12-26T03:08:33.959Z,96070.06
2022-12-26T03:09:53.805Z,96081.31
2022-12-26T03:11:13.301Z,96077.66
2022-12-26T03:12:53.857Z,96070.69
2022-12-26T03:14:08.239Z,96069.91
2022-12-26T03:15:15.543Z,96080.34
2022-12-26T03:16:37.544Z,96076.16
2022-12-26T03:17:41.872Z,96076.84
2022-12-26T03:18:59.001Z,96070.81
2022-12-26T03:20:06.457Z,96073.78
2022-12-26T03:21:12.184Z,96068.09
2022-12-26T03:22:29.087Z,96068.88
2022-12-26T03:23:34.915Z,96068.91
2022-12-26T03:25:01.132Z,96068.09
2022-12-26T03:26:22.820Z,96074.94
2022-12-26T03:27:27.459Z,96075.03
2022-12-26T03:28:29.605Z,96076.69
2022-12-26T03:29:47.464Z,96069.69
2022-12-26T03:30:53.502Z,96072.91
2022-12-26T03:31:58.715Z,96072.59
2022-12-26T03:33:00.811Z,96062.31
2022-12-26T03:34:21.778Z,96063.28
2022-12-26T03:35:26.022Z,96066.59
2022-12-26T03:36:39.497Z,96063.22
2022-12-26T03:37:54.939Z,96067.63
2022-12-26T03:39:09.359Z,96064.50
2022-12-26T03:40:39.930Z,96061.25
2022-12-26T03:42:07.845Z,96063.22
2022-12-26T03:43:36.924Z,96066.78
2022-12-26T03:45:03.506Z,96064.25
2022-12-26T03:46:30.786Z,96060.06
2022-12-26T03:47:56.560Z,96054.19
2022-12-26T03:49:22.712Z,96052.78
2022-12-26T03:50:48.100Z,96057.69
2022-12-26T03:52:12.141Z,96056.63
2022-12-26T03:53:36.682Z,96054.19
2022-12-26T03:55:02.738Z,96051.75
2022-12-26T03:56:25.505Z,96062.66
2022-12-26T03:57:59.335Z,96057.00
2022-12-26T03:59:22.625Z,96060.66
2022-12-26T04:00:41.643Z,96057.97
2022-12-26T04:02:01.514Z,96060.56
2022-12-26T04:03:25.830Z,96058.84
2022-12-26T04:04:47.542Z,96056.50
2022-12-26T04:06:07.014Z,96063.22
2022-12-26T04:07:29.630Z,96066.50
2022-12-26T04:09:05.737Z,96065.69
2022-12-26T04:10:25.919Z,96066.50
2022-12-26T04:11:43.962Z,96065.38
2022-12-26T04:13:03.304Z,96066.53
2022-12-26T04:14:26.839Z,96065.94
2022-12-26T04:15:49.079Z,96065.03
2022-12-26T04:17:13.703Z,96063.94
2022-12-26T04:18:40.212Z,96066.47
2022-12-26T04:20:02.153Z,96067.47
2022-12-26T04:21:32.480Z,96066.53
2022-12-26T04:22:55.703Z,96056.81
2022-12-26T04:24:17.721Z,96066.47
2022-12-26T04:25:48.756Z,96071.13
2022-12-26T04:27:12.255Z,96073.78
2022-12-26T04:28:29.717Z,96080.50
2022-12-26T04:29:46.822Z,96089.84
2022-12-26T04:31:11.675Z,96081.31
2022-12-26T04:32:33.548Z,96079.47
2022-12-26T04:33:58.883Z,96072.34
2022-12-26T04:35:22.891Z,96076.84
2022-12-26T04:36:46.955Z,96087.97
2022-12-26T04:38:06.202Z,96091.53
2022-12-26T04:39:26.988Z,96096.63
2022-12-26T04:40:49.968Z,96096.72
2022-12-26T04:42:08.159Z,96097.50
2022-12-26T04:43:49.942Z,96088.84
2022-12-26T04:44:53.523Z,96101.75
2022-12-26T04:45:56.744Z,96088.66
2022-12-26T04:47:01.405Z,96093.06
2022-12-26T04:48:18.700Z,96094.03
2022-12-26T04:49:38.470Z,96086.22
2022-12-26T04:50:49.525Z,96094.91
2022-12-26T04:51:54.335Z,96089.84
2022-12-26T04:52:59.045Z,96089.72
2022-12-26T04:54:03.829Z,96087.72
2022-12-26T04:55:06.782Z,96089.56
2022-12-26T04:56:13.012Z,96091.09
2022-12-26T04:57:15.005Z,96084.88
2022-12-26T04:58:19.620Z,96080.44
2022-12-26T04:59:22.431Z,96088.28
2022-12-26T05:00:28.689Z,96080.06
2022-12-26T05:01:45.893Z,96084.44
2022-12-26T05:03:03.132Z,96078.59
2022-12-26T05:04:20.212Z,96084.66
2022-12-26T05:05:39.966Z,96091.75
2022-12-26T05:06:57.060Z,96082.06
2022-12-26T05:08:16.713Z,96075.09
2022-12-26T05:09:39.808Z,96094.03
2022-12-26T05:10:41.852Z,96085.06
2022-12-26T05:11:47.321Z,96085.75
2022-12-26T05:12:49.791Z,96086.69
2022-12-26T05:13:54.853Z,96089.03
2022-12-26T05:14:56.875Z,96083.81
2022-12-26T05:16:13.963Z,96091.63
2022-12-26T05:17:31.000Z,96099.38
2022-12-26T05:18:48.038Z,96090.25
2022-12-26T05:20:05.235Z,96089.94
2022-12-26T05:21:29.319Z,96090.94
2022-12-26T05:22:48.278Z,96094.88
2022-12-26T05:24:05.331Z,96087.81
2022-12-26T05:25:29.657Z,96091.03
2022-12-26T05:26:46.838Z,96097.94
2022-12-26T05:28:03.981Z,96092.69
2022-12-26T05:29:08.582Z,96084.00
2022-12-26T05:30:12.275Z,96088.44
2022-12-26T05:31:19.496Z,96088.56
2022-12-26T05:32:36.554Z,96091.47
2022-12-26T05:33:54.018Z,96088.88
2022-12-26T05:34:56.015Z,96088.25
2022-12-26T05:36:01.461Z,96090.09
2022-12-26T05:37:06.123Z,96085.06
2022-12-26T05:38:12.974Z,96082.94
2022-12-26T05:39:15.078Z,96089.84
2022-12-26T05:40:20.128Z,96081.88
2022-12-26T05:41:22.356Z,96082.50
2022-12-26T05:42:26.871Z,96073.78
2022-12-26T05:43:29.441Z,96075.34
2022-12-26T05:44:34.160Z,96075.34
2022-12-26T05:45:36.117Z,96072.66
2022-12-26T05:46:42.576Z,96076.84
2022-12-26T05:47:48.357Z,96062.53
2022-12-26T05:48:56.405Z,96066.31
2022-12-26T05:49:58.991Z,96071.28
2022-12-26T05:51:04.814Z,96061.72
2022-12-26T05:52:09.364Z,96068.91
2022-12-26T05:53:14.083Z,96068.78
2022-12-26T05:54:16.220Z,96067.75
2022-12-26T05:55:21.081Z,96075.16
2022-12-26T05:56:23.668Z,96073.47
2022-12-26T05:57:28.240Z,96074.69
2022-12-26T05:58:30.575Z,96067.84
2022-12-26T05:59:35.101Z,96065.31
2022-12-26T06:00:37.102Z,96070.59
2022-12-26T06:01:41.851Z,96066.56
2022-12-26T06:02:43.987Z,96061.22
2022-12-26T06:03:50.562Z,96067.38
2022-12-26T06:04:52.537Z,96063.28
2022-12-26T06:05:59.488Z,96059.00
2022-12-26T06:07:04.035Z,96054.66
2022-12-26T06:08:08.755Z,96059.69
2022-12-26T06:09:13.302Z,96059.69
2022-12-26T06:10:15.454Z,96057.19
2022-12-26T06:11:21.648Z,96061.59
2022-12-26T06:12:23.608Z,96059.00
2022-12-26T06:13:28.193Z,96067.22
2022-12-26T06:14:30.267Z,96075.78
2022-12-26T06:15:34.922Z,96078.97
2022-12-26T06:16:37.360Z,96079.72
2022-12-26T06:17:41.979Z,96083.19
2022-12-26T06:18:44.645Z,96079.72
2022-12-26T06:19:49.193Z,96083.41
2022-12-26T06:20:51.186Z,96075.00
2022-12-26T06:21:55.843Z,96074.34
2022-12-26T06:22:57.791Z,96075.00
2022-12-26T06:24:05.003Z,96071.75
2022-12-26T06:25:08.274Z,96075.31
2022-12-26T06:26:13.063Z,96078.75
2022-12-26T06:27:15.102Z,96068.75
2022-12-26T06:28:19.672Z,96086.06
2022-12-26T06:29:21.912Z,96084.41
2022-12-26T06:30:26.468Z,96082.03
2022-12-26T06:31:28.896Z,96080.38
2022-12-26T06:32:33.477Z,96083.78
2022-12-26T06:33:35.461Z,96088.13
2022-12-26T06:34:40.151Z,96083.84
2022-12-26T06:35:42.147Z,96077.63
2022-12-26T06:36:46.961Z,96083.84
2022-12-26T06:37:48.915Z,96090.00
2022-12-26T06:38:53.911Z,96084.16
2022-12-26T06:39:58.454Z,96095.50
2022-12-26T06:41:03.116Z,96093.69
2022-12-26T06:42:05.369Z,96091.16
2022-12-26T06:43:10.443Z,96087.00
2022-12-26T06:44:18.143Z,96087.81
2022-12-26T06:45:23.404Z,96089.50
2022-12-26T06:46:25.778Z,96087.97
2022-12-26T06:47:31.998Z,96086.44
2022-12-26T06:48:39.388Z,96088.13
2022-12-26T06:49:44.256Z,96092.28
2022-12-26T06:50:46.223Z,96099.03
2022-12-26T06:51:51.020Z,96093.00
2022-12-26T06:52:53.080Z,96101.66
2022-12-26T06:53:58.065Z,96106.03
2022-12-26T06:55:02.616Z,96100.00
2022-12-26T06:56:12.451Z,96097.47
2022-12-26T06:57:14.400Z,96099.22
2022-12-26T06:58:19.751Z,96098.19
2022-12-26T06:59:21.935Z,96103.38
2022-12-26T07:00:26.520Z,96103.28
2022-12-26T07:01:30.612Z,96087.97
2022-12-26T07:02:35.499Z,96094.97
2022-12-26T07:03:37.972Z,96086.53
2022-12-26T07:04:42.529Z,96090.63
2022-12-26T07:05:44.497Z,96089.94
2022-12-26T07:06:49.047Z,96094.44
2022-12-26T07:07:51.874Z,96097.94
2022-12-26T07:08:59.804Z,96101.44
2022-12-26T07:10:04.745Z,96099.69
2022-12-26T07:11:16.600Z,96096.94
2022-12-26T07:12:20.921Z,96101.81
2022-12-26T07:13:25.450Z,96101.00
2022-12-26T07:14:27.409Z,96110.53
2022-12-26T07:15:31.974Z,96102.59
2022-12-26T07:16:35.049Z,96105.34
2022-12-26T07:17:39.672Z,96106.25
2022-12-26T07:18:42.257Z,96103.66
2022-12-26T07:19:46.861Z,96097.56
2022-12-26T07:20:48.859Z,96097.41
2022-12-26T07:21:53.430Z,96094.97
2022-12-26T07:22:55.528Z,96096.78
2022-12-26T07:24:00.149Z,96096.63
2022-12-26T07:25:05.577Z,96095.34
2022-12-26T07:26:10.893Z,96101.16
2022-12-26T07:27:13.238Z,96099.38
2022-12-26T07:28:18.007Z,96104.44
2022-12-26T07:29:20.102Z,96099.19
2022-12-26T07:30:24.693Z,96107.63
2022-12-26T07:31:28.386Z,96099.84
2022-12-26T07:32:33.143Z,96106.72
2022-12-26T07:33:35.168Z,96102.44
2022-12-26T07:34:39.749Z,96101.56
2022-12-26T07:35:42.092Z,96101.56
2022-12-26T07:36:46.638Z,96105.13
2022-12-26T07:37:48.627Z,96107.56
2022-12-26T07:38:53.219Z,96100.78
2022-12-26T07:39:58.886Z,96098.19
2022-12-26T07:41:27.003Z,96099.47
2022-12-26T07:42:29.031Z,96097.34
2022-12-26T07:43:33.758Z,96105.50
2022-12-26T07:44:35.783Z,96103.19
2022-12-26T07:45:45.562Z,96103.34
2022-12-26T07:46:48.872Z,96098.28
2022-12-26T07:47:56.478Z,96106.06
2022-12-26T07:48:58.493Z,96090.88
2022-12-26T07:50:03.098Z,96104.97
2022-12-26T07:51:05.500Z,96104.25
2022-12-26T07:52:10.040Z,96109.66
2022-12-26T07:53:11.946Z,96110.69
2022-12-26T07:54:17.244Z,96114.34
2022-12-26T07:55:19.470Z,96110.06
2022-12-26T07:56:26.720Z,96100.78
2022-12-26T07:57:48.045Z,96107.63
2022-12-26T07:58:53.759Z,96105.47
2022-12-26T07:59:55.722Z,96107.38
2022-12-26T08:01:04.098Z,96105.75
2022-12-26T08:02:07.317Z,96101.41
2022-12-26T08:03:12.394Z,96106.66
2022-12-26T08:04:14.496Z,96107.41
2022-12-26T08:05:21.013Z,96113.53
2022-12-26T08:06:23.051Z,96100.78
2022-12-26T08:07:27.626Z,96114.66
2022-12-26T08:08:29.527Z,96117.16
2022-12-26T08:09:34.032Z,96112.88
2022-12-26T08:10:35.973Z,96107.78
2022-12-26T08:11:44.178Z,96102.59
2022-12-26T08:12:46.121Z,96106.09
2022-12-26T08:13:50.663Z,96111.28
2022-12-26T08:14:52.595Z,96112.13
2022-12-26T08:15:57.178Z,96111.28
2022-12-26T08:17:01.772Z,96108.84
2022-12-26T08:18:03.973Z,96114.78
2022-12-26T08:19:08.786Z,96105.28
2022-12-26T08:20:10.900Z,96106.25
2022-12-26T08:21:16.187Z,96107.09
2022-12-26T08:22:18.190Z,96111.06
2022-12-26T08:23:22.756Z,96114.34
2022-12-26T08:24:24.696Z,96113.44
2022-12-26T08:25:29.263Z,96120.31
2022-12-26T08:26:31.287Z,96115.03
2022-12-26T08:27:38.718Z,96122.81
2022-12-26T08:28:40.712Z,96128.13
2022-12-26T08:29:45.246Z,96126.22
2022-12-26T08:30:49.735Z,96120.31
2022-12-26T08:31:54.554Z,96115.97
2022-12-26T08:32:56.490Z,96127.16
2022-12-26T08:34:01.087Z,96125.59
2022-12-26T08:35:03.479Z,96125.88
2022-12-26T08:36:10.192Z,96132.13
2022-12-26T08:37:14.906Z,96131.50
2022-12-26T08:38:16.813Z,96132.66
2022-12-26T08:39:21.425Z,96128.50
2022-12-26T08:40:41.959Z,96131.28
2022-12-26T08:41:47.724Z,96136.59
2022-12-26T08:43:12.336Z,96127.13
2022-12-26T08:44:27.227Z,96129.88
2022-12-26T08:45:29.961Z,96130.00
2022-12-26T08:46:34.666Z,96143.03
2022-12-26T08:47:36.587Z,96144.00
2022-12-26T08:48:43.029Z,96141.47
2022-12-26T08:49:45.017Z,96146.78
2022-12-26T08:50:49.564Z,96143.41
2022-12-26T08:51:54.205Z,96138.31
2022-12-26T08:52:56.117Z,96136.56
2022-12-26T08:54:00.858Z,96142.72
2022-12-26T08:55:03.200Z,96146.22
2022-12-26T08:56:09.869Z,96135.03
2022-12-26T08:57:14.591Z,96144.41
2022-12-26T08:58:19.193Z,96146.09
2022-12-26T08:59:24.197Z,96146.09
2022-12-26T09:00:26.511Z,96153.72
2022-12-26T09:01:33.085Z,96153.56
2022-12-26T09:02:35.238Z,96157.56
2022-12-26T09:03:39.979Z,96162.75
2022-12-26T09:04:41.940Z,96163.00
2022-12-26T09:05:46.872Z,96160.34
2022-12-26T09:06:48.807Z,96163.13
2022-12-26T09:07:53.303Z,96158.94
2022-12-26T09:08:55.291Z,96155.66
2022-12-26T09:09:59.820Z,96156.72
2022-12-26T09:11:05.330Z,96149.00
2022-12-26T09:12:10.089Z,96162.91
2022-12-26T09:13:11.997Z,96157.72
2022-12-26T09:14:19.083Z,96161.28
2022-12-26T09:15:21.019Z,96165.63
2022-12-26T09:16:31.521Z,96170.66
2022-12-26T09:17:36.167Z,96171.75
2022-12-26T09:18:41.142Z,96170.94
2022-12-26T09:19:43.343Z,96167.56
2022-12-26T09:20:47.865Z,96171.97
2022-12-26T09:22:11.129Z,96173.56
2022-12-26T09:23:15.631Z,96171.06
2022-12-26T09:24:18.538Z,96173.66
2022-12-26T09:25:25.298Z,96179.00
2022-12-26T09:26:28.275Z,96187.72
2022-12-26T09:27:32.771Z,96188.50
2022-12-26T09:28:35.012Z,96201.44
2022-12-26T09:29:42.340Z,96200.53
2022-12-26T09:30:45.028Z,96201.38
2022-12-26T09:31:49.532Z,96206.56
2022-12-26T09:32:51.475Z,96203.75
2022-12-26T09:33:56.217Z,96203.88
2022-12-26T09:34:58.420Z,96209.31
2022-12-26T09:36:05.335Z,96206.09
2022-12-26T09:37:08.207Z,96203.50
2022-12-26T09:38:12.712Z,96206.09
2022-12-26T09:39:14.632Z,96212.88
2022-12-26T09:40:26.165Z,96221.72
2022-12-26T09:41:48.212Z,96222.44
2022-12-26T09:42:58.282Z,96224.78
2022-12-26T09:44:06.028Z,96229.22
2022-12-26T09:45:17.171Z,96218.88
2022-12-26T09:46:27.667Z,96224.13
2022-12-26T09:47:37.205Z,96231.88
2022-12-26T09:48:46.198Z,96228.56
2022-12-26T09:49:56.907Z,96227.06
2022-12-26T09:50:59.219Z,96232.19
2022-12-26T09:52:09.724Z,96235.56
2022-12-26T09:53:15.503Z,96234.72
2022-12-26T09:54:28.761Z,96238.06
2022-12-26T09:55:39.741Z,96242.22
2022-12-26T09:58:18.300Z,96235.75
2022-12-26T09:59:24.500Z,96236.72
2022-12-26T10:00:36.409Z,96234.72
2022-12-26T10:01:41.103Z,96242.50
2022-12-26T10:02:43.169Z,96233.63
2022-12-26T10:03:49.641Z,96228.56
2022-12-26T10:04:52.712Z,96231.06
2022-12-26T10:06:13.484Z,96233.50
2022-12-26T10:07:24.326Z,96229.56
2022-12-26T10:08:39.912Z,96235.56
2022-12-26T10:09:58.530Z,96241.56
2022-12-26T10:11:02.730Z,96237.94
2022-12-26T10:12:25.985Z,96238.16
2022-12-26T10:13:40.042Z,96251.34
2022-12-26T10:14:50.970Z,96244.47
2022-12-26T10:16:02.937Z,96250.81
2022-12-26T10:17:14.889Z,96257.00
2022-12-26T10:18:30.894Z,96264.19
2022-12-26T10:19:45.316Z,96263.34
2022-12-26T10:21:06.247Z,96270.31
2022-12-26T10:22:32.858Z,96296.03
2022-12-26T10:23:40.035Z,96303.13
2022-12-26T10:24:43.658Z,96296.28
2022-12-26T10:25:53.464Z,96294.59
2022-12-26T10:27:01.915Z,96297.50
2022-12-26T10:28:09.686Z,96289.63
2022-12-26T10:29:22.705Z,96288.00
2022-12-26T10:30:30.510Z,96288.00
2022-12-26T10:31:41.662Z,96288.69
2022-12-26T10:32:46.379Z,96286.31
2022-12-26T10:33:57.120Z,96286.38
2022-12-26T10:35:00.352Z,96289.69
2022-12-26T10:36:05.853Z,96284.56
2022-12-26T10:37:18.961Z,96281.97
2022-12-26T10:38:29.808Z,96278.50
2022-12-26T10:39:41.110Z,96288.91
2022-12-26T10:40:44.768Z,96286.06
2022-12-26T10:41:52.995Z,96287.94
2022-12-26T10:42:57.631Z,96285.47
2022-12-26T10:44:02.567Z,96288.00
2022-12-26T10:45:15.402Z,96278.50
2022-12-26T10:46:37.063Z,96287.19
2022-12-26T10:47:46.718Z,96293.16
2022-12-26T10:48:48.760Z,96283.84
2022-12-26T10:49:54.485Z,96298.41
2022-12-26T10:50:56.728Z,96289.69
2022-12-26T10:52:03.652Z,96279.41
2022-12-26T10:53:10.473Z,96282.56
2022-12-26T10:54:17.922Z,96284.31
2022-12-26T10:55:29.180Z,96275.16
2022-12-26T10:56:33.158Z,96281.16
2022-12-26T10:57:41.516Z,96284.53
2022-12-26T10:58:44.382Z,96283.66
2022-12-26T10:59:52.535Z,96293.03
2022-12-26T11:00:54.541Z,96295.63
2022-12-26T11:02:15.639Z,96291.38
2022-12-26T11:03:21.474Z,96297.25
2022-12-26T11:06:08.437Z,96286.06
2022-12-26T11:07:14.518Z,96287.75
2022-12-26T11:08:20.413Z,96288.28
2022-12-26T11:09:41.204Z,96281.44
2022-12-26T11:10:49.661Z,96295.16
2022-12-26T11:11:54.395Z,96296.03
2022-12-26T11:13:02.715Z,96296.03
2022-12-26T11:14:04.895Z,96301.31
2022-12-26T11:15:23.068Z,96303.13
2022-12-26T11:16:30.094Z,96296.16
2022-12-26T11:17:39.222Z,96296.81
2022-12-26T11:18:52.077Z,96298.63
2022-12-26T11:20:11.460Z,96303.44
2022-12-26T11:21:23.258Z,96294.19
2022-12-26T11:22:27.111Z,96295.72
2022-12-26T11:23:33.212Z,96283.72
2022-12-26T11:24:35.140Z,96293.41
2022-12-26T11:25:51.701Z,96299.03
2022-12-26T11:27:26.728Z,96299.16
2022-12-26T11:28:34.586Z,96294.19
2022-12-26T11:29:37.665Z,96301.75
2022-12-26T11:30:42.665Z,96298.38
2022-12-26T11:31:57.191Z,96295.59
2022-12-26T11:33:21.005Z,96292.34
2022-12-26T11:34:32.684Z,96279.69
2022-12-26T11:35:37.530Z,96272.00
2022-12-26T11:36:50.126Z,96268.50
2022-12-26T11:37:55.578Z,96264.75
2022-12-26T11:39:03.223Z,96265.94
2022-12-26T11:40:06.364Z,96269.31
2022-12-26T11:41:26.248Z,96266.72
2022-12-26T11:42:33.567Z,96255.72
2022-12-26T11:43:36.380Z,96259.19
2022-12-26T11:44:45.511Z,96255.75
2022-12-26T11:45:50.495Z,96256.59
2022-12-26T11:47:00.113Z,96230.66
2022-12-26T11:48:02.530Z,96225.72
2022-12-26T11:49:07.999Z,96237.88
2022-12-26T11:50:17.822Z,96244.97
2022-12-26T11:51:36.886Z,96238.09
2022-12-26T11:52:54.116Z,96240.69
2022-12-26T11:54:17.516Z,96231.25
2022-12-26T11:55:34.206Z,96246.06
2022-12-26T11:56:36.129Z,96265.78
2022-12-26T11:57:43.261Z,96284.69
2022-12-26T11:58:45.470Z,96289.44
2022-12-26T11:59:50.976Z,96299.66
2022-12-26T12:01:12.589Z,96291.25
2022-12-26T12:02:21.513Z,96293.03
2022-12-26T12:03:31.279Z,96293.03
2022-12-26T12:04:35.786Z,96292.28
2022-12-26T12:05:50.523Z,96284.44
2022-12-26T12:07:01.179Z,96282.56
2022-12-26T12:08:21.564Z,96269.25
2022-12-26T12:09:38.259Z,96280.25
2022-12-26T12:10:49.806Z,96281.16
2022-12-26T12:12:01.415Z,96291.28
2022-12-26T12:13:15.319Z,96286.06
2022-12-26T12:14:34.139Z,96272.31
2022-12-26T12:15:43.914Z,96270.81
2022-12-26T12:16:59.688Z,96258.03
2022-12-26T12:18:06.933Z,96266.72
2022-12-26T12:19:23.838Z,96267.69
2022-12-26T12:20:32.822Z,96252.66
2022-12-26T12:21:46.163Z,96245.09
2022-12-26T12:23:03.535Z,96251.69
2022-12-26T12:24:38.530Z,96268.03
2022-12-26T12:26:01.850Z,96257.94
2022-12-26T12:27:13.611Z,96242.69
2022-12-26T12:28:46.368Z,96253.44
2022-12-26T12:30:20.178Z,96257.09
2022-12-26T12:31:34.908Z,96261.31
2022-12-26T12:32:57.412Z,96260.94
2022-12-26T12:34:07.943Z,96264.25
2022-12-26T12:35:37.657Z,96261.91
2022-12-26T12:36:59.619Z,96254.09
2022-12-26T12:38:16.348Z,96247.25
2022-12-26T12:39:38.380Z,96256.59
2022-12-26T12:40:48.996Z,96251.69
2022-12-26T12:42:06.391Z,96256.59
2022-12-26T12:43:17.124Z,96256.59
2022-12-26T12:44:29.054Z,96256.72
2022-12-26T12:45:34.048Z,96252.44
2022-12-26T12:46:48.018Z,96264.13
2022-12-26T12:47:57.135Z,96259.13
2022-12-26T12:49:14.710Z,96243.63
2022-12-26T12:50:24.085Z,96256.72
2022-12-26T12:51:39.839Z,96251.56
2022-12-26T12:52:49.894Z,96249.84
2022-12-26T12:54:23.025Z,96255.06
2022-12-26T12:55:45.710Z,96261.00
2022-12-26T12:57:00.738Z,96259.19
2022-12-26T12:58:11.359Z,96266.09
2022-12-26T12:59:32.696Z,96270.31
2022-12-26T13:00:43.638Z,96266.06
2022-12-26T13:01:50.200Z,96264.44
2022-12-26T13:03:01.523Z,96253.00
2022-12-26T13:04:09.979Z,96265.00
2022-12-26T13:05:25.683Z,96262.44
2022-12-26T13:06:37.832Z,96256.50
2022-12-26T13:07:47.152Z,96260.69
2022-12-26T13:08:58.016Z,96269.84
2022-12-26T13:10:03.704Z,96261.41
2022-12-26T13:11:13.548Z,96256.44
2022-12-26T13:12:21.913Z,96260.63
2022-12-26T13:13:28.967Z,96272.63
2022-12-26T13:14:41.195Z,96270.06
2022-12-26T13:15:46.483Z,96263.16
2022-12-26T13:16:57.823Z,96260.63
2022-12-26T13:18:03.929Z,96264.88
2022-12-26T13:19:13.371Z,96269.22
2022-12-26T13:20:18.221Z,96273.44
2022-12-26T13:21:24.425Z,96269.84
2022-12-26T13:22:51.562Z,96269.94
2022-12-26T13:24:14.714Z,96265.63
2022-12-26T13:25:21.330Z,96270.66
2022-12-26T13:26:29.971Z,96272.50
2022-12-26T13:27:39.315Z,96274.25
2022-12-26T13:28:51.821Z,96267.34
2022-12-26T13:29:59.130Z,96265.50
2022-12-26T13:31:01.376Z,96266.59
2022-12-26T13:32:08.161Z,96268.25
2022-12-26T13:33:16.559Z,96271.50
2022-12-26T13:34:23.352Z,96266.47
2022-12-26T13:35:52.461Z,96258.69
2022-12-26T13:36:59.816Z,96260.59
2022-12-26T13:38:02.228Z,96263.22
2022-12-26T13:39:37.155Z,96256.25
2022-12-26T13:40:48.348Z,96248.63
2022-12-26T13:42:09.452Z,96254.69